sensor_id;sensor_type;location;lat;lon;timestamp;pressure;altitude;pressure_sealevel;temperature
69007;BMP180;56061;51.748;19.620;2022-09-01T00:02:19;99440.80;;;14.50
69007;BMP180;56061;51.748;19.620;2022-09-01T00:04:46;99437.60;;;14.50
69007;BMP180;56061;51.748;19.620;2022-09-01T00:07:13;99438.60;;;14.50
69007;BMP180;56061;51.748;19.620;2022-09-01T00:09:40;99439.60;;;14.50
69007;BMP180;56061;51.748;19.620;2022-09-01T00:12:08;99440.80;;;14.50
69007;BMP180;56061;51.748;19.620;2022-09-01T00:14:39;99439.00;;;14.40
69007;BMP180;56061;51.748;19.620;2022-09-01T00:17:10;99437.60;;;14.40
69007;BMP180;56061;51.748;19.620;2022-09-01T00:19:38;99435.60;;;14.40
69007;BMP180;56061;51.748;19.620;2022-09-01T00:22:06;99438.20;;;14.40
69007;BMP180;56061;51.748;19.620;2022-09-01T00:24:34;99443.20;;;14.40
69007;BMP180;56061;51.748;19.620;2022-09-01T00:27:01;99444.20;;;14.40
69007;BMP180;56061;51.748;19.620;2022-09-01T00:29:28;99447.80;;;14.40
69007;BMP180;56061;51.748;19.620;2022-09-01T00:31:54;99451.40;;;14.30
69007;BMP180;56061;51.748;19.620;2022-09-01T00:34:21;99451.00;;;14.30
69007;BMP180;56061;51.748;19.620;2022-09-01T00:36:48;99447.40;;;14.30
69007;BMP180;56061;51.748;19.620;2022-09-01T00:39:15;99444.80;;;14.30
69007;BMP180;56061;51.748;19.620;2022-09-01T00:41:43;99447.20;;;14.30
69007;BMP180;56061;51.748;19.620;2022-09-01T00:44:15;99449.60;;;14.30
69007;BMP180;56061;51.748;19.620;2022-09-01T00:46:48;99450.00;;;14.30
69007;BMP180;56061;51.748;19.620;2022-09-01T00:49:34;99443.60;;;14.20
69007;BMP180;56061;51.748;19.620;2022-09-01T00:52:14;99447.80;;;14.20
69007;BMP180;56061;51.748;19.620;2022-09-01T00:54:50;99449.00;;;14.20
69007;BMP180;56061;51.748;19.620;2022-09-01T00:57:18;99446.40;;;14.20
69007;BMP180;56061;51.748;19.620;2022-09-01T00:59:54;99440.40;;;14.10
69007;BMP180;56061;51.748;19.620;2022-09-01T01:02:22;99438.80;;;14.10
69007;BMP180;56061;51.748;19.620;2022-09-01T01:04:49;99434.40;;;14.10
69007;BMP180;56061;51.748;19.620;2022-09-01T01:07:19;99438.20;;;14.10
69007;BMP180;56061;51.748;19.620;2022-09-01T01:09:50;99436.20;;;14.04
69007;BMP180;56061;51.748;19.620;2022-09-01T01:12:17;99440.20;;;14.00
69007;BMP180;56061;51.748;19.620;2022-09-01T01:14:48;99439.80;;;14.00
69007;BMP180;56061;51.748;19.620;2022-09-01T01:17:19;99440.00;;;13.92
69007;BMP180;56061;51.748;19.620;2022-09-01T01:19:55;99440.00;;;13.90
69007;BMP180;56061;51.748;19.620;2022-09-01T01:23:03;99441.20;;;13.90
69007;BMP180;56061;51.748;19.620;2022-09-01T01:25:46;99449.60;;;13.90
69007;BMP180;56061;51.748;19.620;2022-09-01T01:28:20;99445.80;;;13.86
69007;BMP180;56061;51.748;19.620;2022-09-01T01:30:56;99448.20;;;13.80
69007;BMP180;56061;51.748;19.620;2022-09-01T01:33:29;99448.40;;;13.80
69007;BMP180;56061;51.748;19.620;2022-09-01T01:35:57;99453.00;;;13.70
69007;BMP180;56061;51.748;19.620;2022-09-01T01:38:27;99450.00;;;13.70
69007;BMP180;56061;51.748;19.620;2022-09-01T01:40:55;99447.40;;;13.60
69007;BMP180;56061;51.748;19.620;2022-09-01T01:43:23;99445.00;;;13.60
69007;BMP180;56061;51.748;19.620;2022-09-01T01:45:54;99437.80;;;13.60
69007;BMP180;56061;51.748;19.620;2022-09-01T01:48:24;99436.00;;;13.60
69007;BMP180;56061;51.748;19.620;2022-09-01T01:50:53;99433.80;;;13.58
69007;BMP180;56061;51.748;19.620;2022-09-01T01:53:20;99435.80;;;13.54
69007;BMP180;56061;51.748;19.620;2022-09-01T01:55:48;99433.20;;;13.50
69007;BMP180;56061;51.748;19.620;2022-09-01T01:58:21;99429.80;;;13.50
69007;BMP180;56061;51.748;19.620;2022-09-01T02:00:50;99432.20;;;13.50
69007;BMP180;56061;51.748;19.620;2022-09-01T02:03:23;99425.80;;;13.40
69007;BMP180;56061;51.748;19.620;2022-09-01T02:05:53;99429.00;;;13.40
69007;BMP180;56061;51.748;19.620;2022-09-01T02:08:22;99425.40;;;13.40
69007;BMP180;56061;51.748;19.620;2022-09-01T02:10:53;99426.20;;;13.32
69007;BMP180;56061;51.748;19.620;2022-09-01T02:13:23;99426.40;;;13.30
69007;BMP180;56061;51.748;19.620;2022-09-01T02:16:05;99421.40;;;13.30
69007;BMP180;56061;51.748;19.620;2022-09-01T02:18:37;99416.80;;;13.30
69007;BMP180;56061;51.748;19.620;2022-09-01T02:21:07;99419.00;;;13.20
69007;BMP180;56061;51.748;19.620;2022-09-01T02:23:41;99418.60;;;13.12
69007;BMP180;56061;51.748;19.620;2022-09-01T02:26:09;99418.80;;;13.10
69007;BMP180;56061;51.748;19.620;2022-09-01T02:28:45;99421.60;;;13.10
69007;BMP180;56061;51.748;19.620;2022-09-01T02:31:21;99421.40;;;13.10
69007;BMP180;56061;51.748;19.620;2022-09-01T02:33:48;99423.00;;;13.00
69007;BMP180;56061;51.748;19.620;2022-09-01T02:36:17;99421.40;;;13.00
69007;BMP180;56061;51.748;19.620;2022-09-01T02:38:45;99424.80;;;12.90
69007;BMP180;56061;51.748;19.620;2022-09-01T02:41:22;99425.80;;;12.90
69007;BMP180;56061;51.748;19.620;2022-09-01T02:43:52;99425.80;;;12.80
69007;BMP180;56061;51.748;19.620;2022-09-01T02:46:19;99428.60;;;12.74
69007;BMP180;56061;51.748;19.620;2022-09-01T02:48:50;99421.80;;;12.70
69007;BMP180;56061;51.748;19.620;2022-09-01T02:51:21;99425.40;;;12.60
69007;BMP180;56061;51.748;19.620;2022-09-01T02:53:49;99426.20;;;12.60
69007;BMP180;56061;51.748;19.620;2022-09-01T02:56:23;99429.60;;;12.50
69007;BMP180;56061;51.748;19.620;2022-09-01T02:58:52;99424.40;;;12.50
69007;BMP180;56061;51.748;19.620;2022-09-01T03:01:31;99424.80;;;12.50
69007;BMP180;56061;51.748;19.620;2022-09-01T03:04:02;99427.40;;;12.50
69007;BMP180;56061;51.748;19.620;2022-09-01T03:06:31;99426.00;;;12.40
69007;BMP180;56061;51.748;19.620;2022-09-01T03:09:03;99428.00;;;12.30
69007;BMP180;56061;51.748;19.620;2022-09-01T03:11:35;99429.20;;;12.30
69007;BMP180;56061;51.748;19.620;2022-09-01T03:14:04;99430.60;;;12.20
69007;BMP180;56061;51.748;19.620;2022-09-01T03:16:31;99428.40;;;12.20
69007;BMP180;56061;51.748;19.620;2022-09-01T03:18:59;99426.00;;;12.10
69007;BMP180;56061;51.748;19.620;2022-09-01T03:21:29;99429.60;;;12.08
69007;BMP180;56061;51.748;19.620;2022-09-01T03:23:58;99429.20;;;12.00
69007;BMP180;56061;51.748;19.620;2022-09-01T03:26:28;99425.60;;;11.96
69007;BMP180;56061;51.748;19.620;2022-09-01T03:28:55;99425.40;;;11.90
69007;BMP180;56061;51.748;19.620;2022-09-01T03:31:23;99425.80;;;11.90
69007;BMP180;56061;51.748;19.620;2022-09-01T03:33:58;99424.40;;;11.90
69007;BMP180;56061;51.748;19.620;2022-09-01T03:36:27;99427.40;;;11.80
69007;BMP180;56061;51.748;19.620;2022-09-01T03:38:54;99425.80;;;11.80
69007;BMP180;56061;51.748;19.620;2022-09-01T03:41:25;99429.40;;;11.80
69007;BMP180;56061;51.748;19.620;2022-09-01T03:43:54;99423.20;;;11.70
69007;BMP180;56061;51.748;19.620;2022-09-01T03:46:24;99423.20;;;11.70
69007;BMP180;56061;51.748;19.620;2022-09-01T03:48:57;99426.20;;;11.70
69007;BMP180;56061;51.748;19.620;2022-09-01T03:51:25;99423.60;;;11.60
69007;BMP180;56061;51.748;19.620;2022-09-01T03:53:53;99423.80;;;11.60
69007;BMP180;56061;51.748;19.620;2022-09-01T03:56:26;99424.40;;;11.50
69007;BMP180;56061;51.748;19.620;2022-09-01T04:01:30;99425.80;;;11.50
69007;BMP180;56061;51.748;19.620;2022-09-01T04:03:59;99427.60;;;11.40
69007;BMP180;56061;51.748;19.620;2022-09-01T04:06:26;99428.80;;;11.40
69007;BMP180;56061;51.748;19.620;2022-09-01T04:08:53;99428.00;;;11.40
69007;BMP180;56061;51.748;19.620;2022-09-01T04:11:28;99428.60;;;11.38
69007;BMP180;56061;51.748;19.620;2022-09-01T04:13:59;99426.60;;;11.30
69007;BMP180;56061;51.748;19.620;2022-09-01T04:16:30;99431.00;;;11.30
69007;BMP180;56061;51.748;19.620;2022-09-01T04:19:18;99431.60;;;11.30
69007;BMP180;56061;51.748;19.620;2022-09-01T04:21:48;99431.00;;;11.30
69007;BMP180;56061;51.748;19.620;2022-09-01T04:24:21;99432.80;;;11.30
69007;BMP180;56061;51.748;19.620;2022-09-01T04:26:51;99432.60;;;11.30
69007;BMP180;56061;51.748;19.620;2022-09-01T04:29:20;99433.80;;;11.30
69007;BMP180;56061;51.748;19.620;2022-09-01T04:32:00;99437.60;;;11.30
69007;BMP180;56061;51.748;19.620;2022-09-01T04:34:32;99432.80;;;11.30
69007;BMP180;56061;51.748;19.620;2022-09-01T04:37:14;99439.40;;;11.40
69007;BMP180;56061;51.748;19.620;2022-09-01T04:39:54;99438.60;;;11.40
69007;BMP180;56061;51.748;19.620;2022-09-01T04:42:26;99432.80;;;11.42
69007;BMP180;56061;51.748;19.620;2022-09-01T04:44:55;99438.20;;;11.50
69007;BMP180;56061;51.748;19.620;2022-09-01T04:47:24;99436.00;;;11.50
69007;BMP180;56061;51.748;19.620;2022-09-01T04:50:01;99437.40;;;11.50
69007;BMP180;56061;51.748;19.620;2022-09-01T04:52:28;99441.60;;;11.60
69007;BMP180;56061;51.748;19.620;2022-09-01T04:54:57;99437.80;;;11.60
69007;BMP180;56061;51.748;19.620;2022-09-01T04:57:24;99439.00;;;11.60
69007;BMP180;56061;51.748;19.620;2022-09-01T04:59:54;99438.60;;;11.70
69007;BMP180;56061;51.748;19.620;2022-09-01T05:02:22;99440.60;;;11.70
69007;BMP180;56061;51.748;19.620;2022-09-01T05:04:52;99436.40;;;11.70
69007;BMP180;56061;51.748;19.620;2022-09-01T05:07:20;99440.80;;;11.70
69007;BMP180;56061;51.748;19.620;2022-09-01T05:09:46;99443.80;;;11.80
69007;BMP180;56061;51.748;19.620;2022-09-01T05:12:13;99441.80;;;11.80
69007;BMP180;56061;51.748;19.620;2022-09-01T05:14:46;99444.40;;;11.80
69007;BMP180;56061;51.748;19.620;2022-09-01T05:17:14;99446.60;;;11.90
69007;BMP180;56061;51.748;19.620;2022-09-01T05:19:46;99442.00;;;11.98
69007;BMP180;56061;51.748;19.620;2022-09-01T05:22:14;99441.80;;;12.00
69007;BMP180;56061;51.748;19.620;2022-09-01T05:24:43;99444.00;;;12.10
69007;BMP180;56061;51.748;19.620;2022-09-01T05:27:11;99446.80;;;12.20
69007;BMP180;56061;51.748;19.620;2022-09-01T05:29:38;99454.40;;;12.20
69007;BMP180;56061;51.748;19.620;2022-09-01T05:32:07;99448.40;;;12.30
69007;BMP180;56061;51.748;19.620;2022-09-01T05:34:36;99444.80;;;12.30
69007;BMP180;56061;51.748;19.620;2022-09-01T05:37:07;99447.00;;;12.40
69007;BMP180;56061;51.748;19.620;2022-09-01T05:39:35;99442.60;;;12.40
69007;BMP180;56061;51.748;19.620;2022-09-01T05:42:04;99440.80;;;12.50
69007;BMP180;56061;51.748;19.620;2022-09-01T05:44:35;99438.80;;;12.54
69007;BMP180;56061;51.748;19.620;2022-09-01T05:47:02;99443.20;;;12.62
69007;BMP180;56061;51.748;19.620;2022-09-01T05:49:30;99442.00;;;12.70
69007;BMP180;56061;51.748;19.620;2022-09-01T05:51:59;99441.60;;;12.80
69007;BMP180;56061;51.748;19.620;2022-09-01T05:54:26;99443.60;;;12.90
69007;BMP180;56061;51.748;19.620;2022-09-01T05:56:55;99443.00;;;12.98
69007;BMP180;56061;51.748;19.620;2022-09-01T05:59:44;99443.60;;;13.04
69007;BMP180;56061;51.748;19.620;2022-09-01T06:02:12;99445.60;;;13.10
69007;BMP180;56061;51.748;19.620;2022-09-01T06:04:39;99443.20;;;13.20
69007;BMP180;56061;51.748;19.620;2022-09-01T06:07:06;99448.40;;;13.20
69007;BMP180;56061;51.748;19.620;2022-09-01T06:09:46;99442.80;;;13.30
69007;BMP180;56061;51.748;19.620;2022-09-01T06:12:15;99443.80;;;13.40
69007;BMP180;56061;51.748;19.620;2022-09-01T06:14:52;99442.80;;;13.40
69007;BMP180;56061;51.748;19.620;2022-09-01T06:17:22;99447.40;;;13.50
69007;BMP180;56061;51.748;19.620;2022-09-01T06:19:54;99448.20;;;13.60
69007;BMP180;56061;51.748;19.620;2022-09-01T06:22:26;99447.40;;;13.60
69007;BMP180;56061;51.748;19.620;2022-09-01T06:24:53;99452.00;;;13.70
69007;BMP180;56061;51.748;19.620;2022-09-01T06:27:27;99447.40;;;13.70
69007;BMP180;56061;51.748;19.620;2022-09-01T06:29:55;99443.40;;;13.78
69007;BMP180;56061;51.748;19.620;2022-09-01T06:32:23;99446.80;;;13.80
69007;BMP180;56061;51.748;19.620;2022-09-01T06:34:51;99448.20;;;13.82
69007;BMP180;56061;51.748;19.620;2022-09-01T06:37:18;99453.00;;;13.82
69007;BMP180;56061;51.748;19.620;2022-09-01T06:39:49;99455.20;;;13.90
69007;BMP180;56061;51.748;19.620;2022-09-01T06:42:17;99454.40;;;13.90
69007;BMP180;56061;51.748;19.620;2022-09-01T06:44:44;99460.40;;;13.90
69007;BMP180;56061;51.748;19.620;2022-09-01T06:47:11;99463.00;;;14.00
69007;BMP180;56061;51.748;19.620;2022-09-01T06:49:38;99458.20;;;14.10
69007;BMP180;56061;51.748;19.620;2022-09-01T06:52:06;99461.40;;;14.20
69007;BMP180;56061;51.748;19.620;2022-09-01T06:54:34;99462.60;;;14.30
69007;BMP180;56061;51.748;19.620;2022-09-01T06:57:02;99460.60;;;14.42
69007;BMP180;56061;51.748;19.620;2022-09-01T06:59:49;99467.40;;;14.60
69007;BMP180;56061;51.748;19.620;2022-09-01T07:02:36;99465.80;;;14.70
69007;BMP180;56061;51.748;19.620;2022-09-01T07:05:05;99466.20;;;14.70
69007;BMP180;56061;51.748;19.620;2022-09-01T07:07:33;99467.20;;;14.70
69007;BMP180;56061;51.748;19.620;2022-09-01T07:10:22;99468.20;;;14.76
69007;BMP180;56061;51.748;19.620;2022-09-01T07:12:56;99472.40;;;14.80
69007;BMP180;56061;51.748;19.620;2022-09-01T07:15:45;99472.40;;;14.90
69007;BMP180;56061;51.748;19.620;2022-09-01T07:18:34;99470.40;;;15.00
69007;BMP180;56061;51.748;19.620;2022-09-01T07:21:05;99474.80;;;15.10
69007;BMP180;56061;51.748;19.620;2022-09-01T07:23:53;99476.80;;;15.10
69007;BMP180;56061;51.748;19.620;2022-09-01T07:26:40;99479.40;;;15.20
69007;BMP180;56061;51.748;19.620;2022-09-01T07:29:15;99477.40;;;15.20
69007;BMP180;56061;51.748;19.620;2022-09-01T07:31:43;99483.00;;;15.30
69007;BMP180;56061;51.748;19.620;2022-09-01T07:34:30;99476.40;;;15.34
69007;BMP180;56061;51.748;19.620;2022-09-01T07:37:06;99476.60;;;15.40
69007;BMP180;56061;51.748;19.620;2022-09-01T07:39:53;99473.80;;;15.50
69007;BMP180;56061;51.748;19.620;2022-09-01T07:42:21;99469.00;;;15.50
69007;BMP180;56061;51.748;19.620;2022-09-01T07:45:10;99471.00;;;15.60
69007;BMP180;56061;51.748;19.620;2022-09-01T07:47:55;99466.20;;;15.70
69007;BMP180;56061;51.748;19.620;2022-09-01T07:50:23;99467.80;;;15.70
69007;BMP180;56061;51.748;19.620;2022-09-01T07:53:07;99472.80;;;15.80
69007;BMP180;56061;51.748;19.620;2022-09-01T07:55:38;99468.40;;;15.80
69007;BMP180;56061;51.748;19.620;2022-09-01T07:58:06;99473.80;;;15.90
69007;BMP180;56061;51.748;19.620;2022-09-01T08:00:34;99473.00;;;16.00
69007;BMP180;56061;51.748;19.620;2022-09-01T08:03:02;99471.00;;;16.00
69007;BMP180;56061;51.748;19.620;2022-09-01T08:05:28;99471.20;;;16.10
69007;BMP180;56061;51.748;19.620;2022-09-01T08:07:56;99468.20;;;16.20
69007;BMP180;56061;51.748;19.620;2022-09-01T08:10:23;99466.80;;;16.30
69007;BMP180;56061;51.748;19.620;2022-09-01T08:12:50;99466.00;;;16.32
69007;BMP180;56061;51.748;19.620;2022-09-01T08:15:24;99474.00;;;16.40
69007;BMP180;56061;51.748;19.620;2022-09-01T08:18:12;99473.40;;;16.50
69007;BMP180;56061;51.748;19.620;2022-09-01T08:20:42;99468.20;;;16.60
69007;BMP180;56061;51.748;19.620;2022-09-01T08:23:17;99480.00;;;16.60
69007;BMP180;56061;51.748;19.620;2022-09-01T08:25:46;99470.40;;;16.70
69007;BMP180;56061;51.748;19.620;2022-09-01T08:28:14;99471.80;;;16.80
69007;BMP180;56061;51.748;19.620;2022-09-01T08:30:42;99470.60;;;16.82
69007;BMP180;56061;51.748;19.620;2022-09-01T08:33:18;99472.20;;;17.00
69007;BMP180;56061;51.748;19.620;2022-09-01T08:35:47;99470.60;;;17.10
69007;BMP180;56061;51.748;19.620;2022-09-01T08:38:14;99469.20;;;17.10
69007;BMP180;56061;51.748;19.620;2022-09-01T08:40:42;99469.60;;;17.20
69007;BMP180;56061;51.748;19.620;2022-09-01T08:43:28;99467.40;;;17.30
69007;BMP180;56061;51.748;19.620;2022-09-01T08:46:10;99471.00;;;17.40
69007;BMP180;56061;51.748;19.620;2022-09-01T08:48:49;99471.80;;;17.40
69007;BMP180;56061;51.748;19.620;2022-09-01T08:51:51;99467.80;;;17.50
69007;BMP180;56061;51.748;19.620;2022-09-01T08:54:38;99469.60;;;17.64
69007;BMP180;56061;51.748;19.620;2022-09-01T08:57:16;99476.20;;;17.70
69007;BMP180;56061;51.748;19.620;2022-09-01T08:59:45;99472.40;;;17.70
69007;BMP180;56061;51.748;19.620;2022-09-01T09:02:32;99470.00;;;17.90
69007;BMP180;56061;51.748;19.620;2022-09-01T09:08:20;99464.40;;;18.10
69007;BMP180;56061;51.748;19.620;2022-09-01T09:13:40;99468.20;;;18.40
69007;BMP180;56061;51.748;19.620;2022-09-01T09:16:23;99464.20;;;18.30
69007;BMP180;56061;51.748;19.620;2022-09-01T09:21:52;99463.80;;;18.10
69007;BMP180;56061;51.748;19.620;2022-09-01T09:24:50;99465.80;;;18.10
69007;BMP180;56061;51.748;19.620;2022-09-01T09:29:53;99453.40;;;18.30
69007;BMP180;56061;51.748;19.620;2022-09-01T09:32:23;99454.00;;;18.50
69007;BMP180;56061;51.748;19.620;2022-09-01T09:37:49;99450.40;;;18.70
69007;BMP180;56061;51.748;19.620;2022-09-01T09:40:23;99452.60;;;18.80
69007;BMP180;56061;51.748;19.620;2022-09-01T09:45:37;99453.80;;;18.80
69007;BMP180;56061;51.748;19.620;2022-09-01T09:48:29;99451.20;;;18.70
69007;BMP180;56061;51.748;19.620;2022-09-01T09:51:24;99443.60;;;18.80
69007;BMP180;56061;51.748;19.620;2022-09-01T09:54:16;99451.60;;;18.80
69007;BMP180;56061;51.748;19.620;2022-09-01T09:56:45;99446.00;;;18.90
69007;BMP180;56061;51.748;19.620;2022-09-01T09:59:26;99449.40;;;19.00
69007;BMP180;56061;51.748;19.620;2022-09-01T10:02:32;99447.20;;;19.20
69007;BMP180;56061;51.748;19.620;2022-09-01T10:07:56;99451.40;;;19.10
69007;BMP180;56061;51.748;19.620;2022-09-01T10:10:47;99452.80;;;19.00
69007;BMP180;56061;51.748;19.620;2022-09-01T10:13:26;99447.60;;;18.90
69007;BMP180;56061;51.748;19.620;2022-09-01T10:16:04;99453.00;;;18.80
69007;BMP180;56061;51.748;19.620;2022-09-01T10:18:43;99445.80;;;18.74
69007;BMP180;56061;51.748;19.620;2022-09-01T10:21:33;99452.40;;;18.70
69007;BMP180;56061;51.748;19.620;2022-09-01T10:26:59;99445.40;;;18.80
69007;BMP180;56061;51.748;19.620;2022-09-01T10:29:40;99445.20;;;18.80
69007;BMP180;56061;51.748;19.620;2022-09-01T10:32:25;99450.80;;;19.00
69007;BMP180;56061;51.748;19.620;2022-09-01T10:35:10;99445.80;;;19.22
69007;BMP180;56061;51.748;19.620;2022-09-01T10:37:39;99446.00;;;19.40
69007;BMP180;56061;51.748;19.620;2022-09-01T10:40:11;99436.40;;;19.52
69007;BMP180;56061;51.748;19.620;2022-09-01T10:42:41;99442.80;;;19.64
69007;BMP180;56061;51.748;19.620;2022-09-01T10:45:37;99442.60;;;19.70
69007;BMP180;56061;51.748;19.620;2022-09-01T10:48:25;99439.60;;;19.70
69007;BMP180;56061;51.748;19.620;2022-09-01T10:53:54;99439.20;;;19.80
69007;BMP180;56061;51.748;19.620;2022-09-01T10:56:48;99436.00;;;19.80
69007;BMP180;56061;51.748;19.620;2022-09-01T10:59:27;99439.00;;;19.80
69007;BMP180;56061;51.748;19.620;2022-09-01T11:02:16;99446.00;;;19.80
69007;BMP180;56061;51.748;19.620;2022-09-01T11:07:32;99442.80;;;19.62
69007;BMP180;56061;51.748;19.620;2022-09-01T11:13:40;99451.00;;;19.30
69007;BMP180;56061;51.748;19.620;2022-09-01T11:16:37;99451.00;;;19.20
69007;BMP180;56061;51.748;19.620;2022-09-01T11:22:33;99456.80;;;19.00
69007;BMP180;56061;51.748;19.620;2022-09-01T11:25:36;99452.40;;;18.90
69007;BMP180;56061;51.748;19.620;2022-09-01T11:31:39;99454.40;;;18.96
69007;BMP180;56061;51.748;19.620;2022-09-01T11:34:15;99455.80;;;19.20
69007;BMP180;56061;51.748;19.620;2022-09-01T11:36:58;99460.40;;;19.20
69007;BMP180;56061;51.748;19.620;2022-09-01T11:39:35;99457.60;;;19.20
69007;BMP180;56061;51.748;19.620;2022-09-01T11:48:06;99444.60;;;19.20
69007;BMP180;56061;51.748;19.620;2022-09-01T11:50:37;99451.60;;;19.38
69007;BMP180;56061;51.748;19.620;2022-09-01T11:53:13;99447.40;;;19.40
69007;BMP180;56061;51.748;19.620;2022-09-01T11:55:45;99445.40;;;19.50
69007;BMP180;56061;51.748;19.620;2022-09-01T11:58:40;99442.00;;;19.66
69007;BMP180;56061;51.748;19.620;2022-09-01T12:04:23;99436.20;;;20.10
69007;BMP180;56061;51.748;19.620;2022-09-01T12:06:54;99434.80;;;20.22
69007;BMP180;56061;51.748;19.620;2022-09-01T12:09:35;99437.20;;;20.30
69007;BMP180;56061;51.748;19.620;2022-09-01T12:12:05;99435.00;;;20.20
69007;BMP180;56061;51.748;19.620;2022-09-01T12:14:32;99432.80;;;20.20
69007;BMP180;56061;51.748;19.620;2022-09-01T12:17:22;99435.80;;;20.10
69007;BMP180;56061;51.748;19.620;2022-09-01T12:19:48;99427.60;;;20.10
69007;BMP180;56061;51.748;19.620;2022-09-01T12:22:20;99428.20;;;20.20
69007;BMP180;56061;51.748;19.620;2022-09-01T12:24:52;99430.20;;;20.30
69007;BMP180;56061;51.748;19.620;2022-09-01T12:27:21;99426.20;;;20.10
69007;BMP180;56061;51.748;19.620;2022-09-01T12:29:50;99427.00;;;19.90
69007;BMP180;56061;51.748;19.620;2022-09-01T12:32:17;99432.20;;;19.72
69007;BMP180;56061;51.748;19.620;2022-09-01T12:35:00;99427.60;;;19.60
69007;BMP180;56061;51.748;19.620;2022-09-01T12:37:36;99425.00;;;19.58
69007;BMP180;56061;51.748;19.620;2022-09-01T12:40:03;99418.40;;;19.52
69007;BMP180;56061;51.748;19.620;2022-09-01T12:42:33;99423.20;;;19.60
69007;BMP180;56061;51.748;19.620;2022-09-01T12:45:10;99419.80;;;19.60
69007;BMP180;56061;51.748;19.620;2022-09-01T12:52:53;99415.60;;;19.72
69007;BMP180;56061;51.748;19.620;2022-09-01T12:55:31;99416.60;;;19.86
69007;BMP180;56061;51.748;19.620;2022-09-01T12:58:24;99416.20;;;20.00
69007;BMP180;56061;51.748;19.620;2022-09-01T13:01:01;99407.40;;;20.14
69007;BMP180;56061;51.748;19.620;2022-09-01T13:04:23;99401.80;;;20.40
69007;BMP180;56061;51.748;19.620;2022-09-01T13:07:04;99396.80;;;20.60
69007;BMP180;56061;51.748;19.620;2022-09-01T13:09:31;99398.00;;;20.80
69007;BMP180;56061;51.748;19.620;2022-09-01T13:12:19;99401.60;;;20.80
69007;BMP180;56061;51.748;19.620;2022-09-01T13:14:47;99399.00;;;20.60
69007;BMP180;56061;51.748;19.620;2022-09-01T13:17:14;99399.00;;;20.50
69007;BMP180;56061;51.748;19.620;2022-09-01T13:19:41;99408.00;;;20.44
69007;BMP180;56061;51.748;19.620;2022-09-01T13:22:08;99406.20;;;20.32
69007;BMP180;56061;51.748;19.620;2022-09-01T13:24:35;99411.20;;;20.20
69007;BMP180;56061;51.748;19.620;2022-09-01T13:27:02;99411.00;;;20.10
69007;BMP180;56061;51.748;19.620;2022-09-01T13:29:47;99408.60;;;20.00
69007;BMP180;56061;51.748;19.620;2022-09-01T13:32:15;99414.00;;;19.90
69007;BMP180;56061;51.748;19.620;2022-09-01T13:34:46;99410.40;;;19.80
69007;BMP180;56061;51.748;19.620;2022-09-01T13:37:21;99408.00;;;19.70
69007;BMP180;56061;51.748;19.620;2022-09-01T13:39:49;99403.20;;;19.60
69007;BMP180;56061;51.748;19.620;2022-09-01T13:42:16;99405.40;;;19.50
69007;BMP180;56061;51.748;19.620;2022-09-01T13:44:43;99409.00;;;19.40
69007;BMP180;56061;51.748;19.620;2022-09-01T13:47:10;99405.60;;;19.50
69007;BMP180;56061;51.748;19.620;2022-09-01T13:49:58;99404.60;;;19.60
69007;BMP180;56061;51.748;19.620;2022-09-01T13:52:40;99406.20;;;19.90
69007;BMP180;56061;51.748;19.620;2022-09-01T13:55:13;99398.80;;;20.10
69007;BMP180;56061;51.748;19.620;2022-09-01T13:57:48;99401.60;;;20.32
69007;BMP180;56061;51.748;19.620;2022-09-01T14:00:24;99405.00;;;20.40
69007;BMP180;56061;51.748;19.620;2022-09-01T14:02:56;99405.20;;;20.40
69007;BMP180;56061;51.748;19.620;2022-09-01T14:05:34;99397.00;;;20.40
69007;BMP180;56061;51.748;19.620;2022-09-01T14:08:01;99396.60;;;20.50
69007;BMP180;56061;51.748;19.620;2022-09-01T14:10:30;99398.60;;;20.80
69007;BMP180;56061;51.748;19.620;2022-09-01T14:12:59;99405.20;;;21.00
69007;BMP180;56061;51.748;19.620;2022-09-01T14:15:29;99403.60;;;21.10
69007;BMP180;56061;51.748;19.620;2022-09-01T14:18:04;99400.00;;;21.12
69007;BMP180;56061;51.748;19.620;2022-09-01T14:20:34;99407.00;;;20.92
69007;BMP180;56061;51.748;19.620;2022-09-01T14:23:04;99402.40;;;20.60
69007;BMP180;56061;51.748;19.620;2022-09-01T14:25:33;99408.80;;;20.22
69007;BMP180;56061;51.748;19.620;2022-09-01T14:28:04;99416.80;;;19.90
69007;BMP180;56061;51.748;19.620;2022-09-01T14:30:32;99417.00;;;19.66
69007;BMP180;56061;51.748;19.620;2022-09-01T14:33:00;99420.00;;;19.44
69007;BMP180;56061;51.748;19.620;2022-09-01T14:35:27;99416.00;;;19.24
69007;BMP180;56061;51.748;19.620;2022-09-01T14:37:54;99411.20;;;19.10
69007;BMP180;56061;51.748;19.620;2022-09-01T14:40:36;99419.00;;;18.90
69007;BMP180;56061;51.748;19.620;2022-09-01T14:43:07;99416.20;;;18.76
69007;BMP180;56061;51.748;19.620;2022-09-01T14:45:41;99420.20;;;18.66
69007;BMP180;56061;51.748;19.620;2022-09-01T14:48:34;99415.20;;;18.60
69007;BMP180;56061;51.748;19.620;2022-09-01T14:51:01;99416.60;;;18.60
69007;BMP180;56061;51.748;19.620;2022-09-01T14:53:29;99413.40;;;18.60
69007;BMP180;56061;51.748;19.620;2022-09-01T14:56:12;99418.20;;;18.58
69007;BMP180;56061;51.748;19.620;2022-09-01T14:58:38;99416.00;;;18.50
69007;BMP180;56061;51.748;19.620;2022-09-01T15:01:07;99415.60;;;18.50
69007;BMP180;56061;51.748;19.620;2022-09-01T15:04:05;99420.00;;;18.46
69007;BMP180;56061;51.748;19.620;2022-09-01T15:06:32;99414.80;;;18.36
69007;BMP180;56061;51.748;19.620;2022-09-01T15:08:59;99420.00;;;18.30
69007;BMP180;56061;51.748;19.620;2022-09-01T15:11:26;99417.40;;;18.24
69007;BMP180;56061;51.748;19.620;2022-09-01T15:13:53;99419.40;;;18.20
69007;BMP180;56061;51.748;19.620;2022-09-01T15:16:29;99415.80;;;18.20
69007;BMP180;56061;51.748;19.620;2022-09-01T15:19:00;99411.40;;;18.20
69007;BMP180;56061;51.748;19.620;2022-09-01T15:21:29;99408.00;;;18.30
69007;BMP180;56061;51.748;19.620;2022-09-01T15:23:58;99411.20;;;18.50
69007;BMP180;56061;51.748;19.620;2022-09-01T15:26:36;99411.60;;;18.52
69007;BMP180;56061;51.748;19.620;2022-09-01T15:29:03;99413.60;;;18.60